sensor_id;sensor_type;location;lat;lon;timestamp;P1;durP1;ratioP1;P2;durP2;ratioP2
64714;SDS011;51144;53.002;6.506;2022-11-21T00:00:33;22.98;;;16.98;;
64714;SDS011;51144;53.002;6.506;2022-11-21T00:02:59;22.73;;;17.13;;
64714;SDS011;51144;53.002;6.506;2022-11-21T00:05:26;25.88;;;18.80;;
64714;SDS011;51144;53.002;6.506;2022-11-21T00:07:53;22.48;;;16.17;;
64714;SDS011;51144;53.002;6.506;2022-11-21T00:10:19;23.60;;;17.20;;
64714;SDS011;51144;53.002;6.506;2022-11-21T00:12:45;24.80;;;18.00;;
64714;SDS011;51144;53.002;6.506;2022-11-21T00:15:11;23.85;;;17.55;;
64714;SDS011;51144;53.002;6.506;2022-11-21T00:17:36;25.55;;;16.83;;
64714;SDS011;51144;53.002;6.506;2022-11-21T00:20:02;24.30;;;17.63;;
64714;SDS011;51144;53.002;6.506;2022-11-21T00:22:28;25.50;;;17.20;;
64714;SDS011;51144;53.002;6.506;2022-11-21T00:24:55;26.00;;;17.92;;
64714;SDS011;51144;53.002;6.506;2022-11-21T00:27:21;28.85;;;17.67;;
64714;SDS011;51144;53.002;6.506;2022-11-21T00:29:46;27.35;;;18.25;;
64714;SDS011;51144;53.002;6.506;2022-11-21T00:32:12;25.27;;;17.77;;
64714;SDS011;51144;53.002;6.506;2022-11-21T00:34:38;22.30;;;17.15;;
64714;SDS011;51144;53.002;6.506;2022-11-21T00:37:03;25.65;;;17.65;;
64714;SDS011;51144;53.002;6.506;2022-11-21T00:39:29;26.00;;;17.65;;
64714;SDS011;51144;53.002;6.506;2022-11-21T00:41:54;25.63;;;17.55;;
64714;SDS011;51144;53.002;6.506;2022-11-21T00:44:20;22.38;;;16.52;;
64714;SDS011;51144;53.002;6.506;2022-11-21T00:46:45;25.38;;;18.55;;
64714;SDS011;51144;53.002;6.506;2022-11-21T00:49:11;25.27;;;17.10;;
64714;SDS011;51144;53.002;6.506;2022-11-21T00:51:36;25.92;;;17.30;;
64714;SDS011;51144;53.002;6.506;2022-11-21T00:54:02;27.08;;;18.58;;
64714;SDS011;51144;53.002;6.506;2022-11-21T00:56:27;25.67;;;18.15;;
64714;SDS011;51144;53.002;6.506;2022-11-21T00:58:53;25.17;;;18.50;;
64714;SDS011;51144;53.002;6.506;2022-11-21T01:01:19;24.13;;;17.73;;
64714;SDS011;51144;53.002;6.506;2022-11-21T01:03:44;22.75;;;17.30;;
64714;SDS011;51144;53.002;6.506;2022-11-21T01:06:11;28.73;;;17.88;;
64714;SDS011;51144;53.002;6.506;2022-11-21T01:08:39;26.95;;;18.02;;
64714;SDS011;51144;53.002;6.506;2022-11-21T01:11:07;29.63;;;18.98;;
64714;SDS011;51144;53.002;6.506;2022-11-21T01:13:34;25.00;;;17.75;;
64714;SDS011;51144;53.002;6.506;2022-11-21T01:16:05;29.15;;;20.15;;
64714;SDS011;51144;53.002;6.506;2022-11-21T01:18:31;29.10;;;18.63;;
64714;SDS011;51144;53.002;6.506;2022-11-21T01:20:58;24.13;;;17.88;;
64714;SDS011;51144;53.002;6.506;2022-11-21T01:23:28;27.02;;;18.85;;
64714;SDS011;51144;53.002;6.506;2022-11-21T01:25:54;26.75;;;17.88;;
64714;SDS011;51144;53.002;6.506;2022-11-21T01:28:24;28.27;;;18.50;;
64714;SDS011;51144;53.002;6.506;2022-11-21T01:30:50;26.13;;;17.42;;
64714;SDS011;51144;53.002;6.506;2022-11-21T01:33:15;23.55;;;16.80;;
64714;SDS011;51144;53.002;6.506;2022-11-21T01:35:41;27.85;;;19.63;;
64714;SDS011;51144;53.002;6.506;2022-11-21T01:38:06;27.73;;;18.33;;
64714;SDS011;51144;53.002;6.506;2022-11-21T01:40:36;23.02;;;17.27;;
64714;SDS011;51144;53.002;6.506;2022-11-21T01:43:08;25.48;;;17.83;;
64714;SDS011;51144;53.002;6.506;2022-11-21T01:45:51;23.80;;;17.45;;
64714;SDS011;51144;53.002;6.506;2022-11-21T01:48:30;27.88;;;17.40;;
64714;SDS011;51144;53.002;6.506;2022-11-21T01:51:02;27.05;;;17.42;;
64714;SDS011;51144;53.002;6.506;2022-11-21T01:53:33;22.52;;;16.55;;
64714;SDS011;51144;53.002;6.506;2022-11-21T01:56:00;24.35;;;16.95;;
64714;SDS011;51144;53.002;6.506;2022-11-21T01:58:27;23.52;;;16.20;;
64714;SDS011;51144;53.002;6.506;2022-11-21T02:00:55;24.55;;;16.02;;
64714;SDS011;51144;53.002;6.506;2022-11-21T02:03:21;24.45;;;16.90;;
64714;SDS011;51144;53.002;6.506;2022-11-21T02:05:51;23.27;;;17.42;;
64714;SDS011;51144;53.002;6.506;2022-11-21T02:08:19;24.70;;;17.52;;
64714;SDS011;51144;53.002;6.506;2022-11-21T02:10:58;23.25;;;17.10;;
64714;SDS011;51144;53.002;6.506;2022-11-21T02:13:41;23.95;;;17.00;;
64714;SDS011;51144;53.002;6.506;2022-11-21T02:16:07;24.27;;;16.67;;
64714;SDS011;51144;53.002;6.506;2022-11-21T02:18:32;28.95;;;18.05;;
64714;SDS011;51144;53.002;6.506;2022-11-21T02:21:05;25.25;;;17.08;;
64714;SDS011;51144;53.002;6.506;2022-11-21T02:23:42;26.45;;;17.65;;
64714;SDS011;51144;53.002;6.506;2022-11-21T02:26:17;26.00;;;16.98;;
64714;SDS011;51144;53.002;6.506;2022-11-21T02:28:45;26.20;;;17.27;;
64714;SDS011;51144;53.002;6.506;2022-11-21T02:31:11;26.83;;;17.52;;
64714;SDS011;51144;53.002;6.506;2022-11-21T02:33:37;27.90;;;17.92;;
64714;SDS011;51144;53.002;6.506;2022-11-21T02:36:02;27.08;;;17.65;;
64714;SDS011;51144;53.002;6.506;2022-11-21T02:38:33;26.95;;;19.10;;
64714;SDS011;51144;53.002;6.506;2022-11-21T02:41:06;29.23;;;17.95;;
64714;SDS011;51144;53.002;6.506;2022-11-21T02:43:38;27.95;;;19.10;;
64714;SDS011;51144;53.002;6.506;2022-11-21T02:46:11;34.85;;;19.35;;
64714;SDS011;51144;53.002;6.506;2022-11-21T02:48:37;26.65;;;17.95;;
64714;SDS011;51144;53.002;6.506;2022-11-21T02:51:03;30.00;;;18.25;;
64714;SDS011;51144;53.002;6.506;2022-11-21T02:53:29;27.92;;;18.75;;
64714;SDS011;51144;53.002;6.506;2022-11-21T02:55:54;27.02;;;18.58;;
64714;SDS011;51144;53.002;6.506;2022-11-21T02:58:20;26.42;;;18.58;;
64714;SDS011;51144;53.002;6.506;2022-11-21T03:00:48;28.95;;;19.48;;
64714;SDS011;51144;53.002;6.506;2022-11-21T03:03:14;31.23;;;19.80;;
64714;SDS011;51144;53.002;6.506;2022-11-21T03:05:40;30.73;;;20.20;;
64714;SDS011;51144;53.002;6.506;2022-11-21T03:08:06;29.05;;;18.10;;
64714;SDS011;51144;53.002;6.506;2022-11-21T03:10:32;30.05;;;18.95;;
64714;SDS011;51144;53.002;6.506;2022-11-21T03:12:58;27.58;;;18.23;;
64714;SDS011;51144;53.002;6.506;2022-11-21T03:15:30;31.63;;;19.42;;
64714;SDS011;51144;53.002;6.506;2022-11-21T03:17:58;25.38;;;17.15;;
64714;SDS011;51144;53.002;6.506;2022-11-21T03:20:26;34.28;;;19.45;;
64714;SDS011;51144;53.002;6.506;2022-11-21T03:22:52;32.33;;;19.00;;
64714;SDS011;51144;53.002;6.506;2022-11-21T03:25:18;30.35;;;18.83;;
64714;SDS011;51144;53.002;6.506;2022-11-21T03:27:44;26.67;;;18.08;;
64714;SDS011;51144;53.002;6.506;2022-11-21T03:30:09;27.88;;;19.00;;
64714;SDS011;51144;53.002;6.506;2022-11-21T03:32:36;27.27;;;18.00;;
64714;SDS011;51144;53.002;6.506;2022-11-21T03:35:01;27.30;;;18.02;;
64714;SDS011;51144;53.002;6.506;2022-11-21T03:37:27;25.63;;;17.55;;
64714;SDS011;51144;53.002;6.506;2022-11-21T03:39:52;27.55;;;18.33;;
64714;SDS011;51144;53.002;6.506;2022-11-21T03:42:18;29.65;;;19.00;;
64714;SDS011;51144;53.002;6.506;2022-11-21T03:44:44;29.67;;;17.92;;
64714;SDS011;51144;53.002;6.506;2022-11-21T03:47:09;30.73;;;18.90;;
64714;SDS011;51144;53.002;6.506;2022-11-21T03:49:35;30.23;;;20.42;;
64714;SDS011;51144;53.002;6.506;2022-11-21T03:52:00;33.65;;;20.33;;
64714;SDS011;51144;53.002;6.506;2022-11-21T03:54:26;32.08;;;19.75;;
64714;SDS011;51144;53.002;6.506;2022-11-21T03:56:51;35.53;;;20.67;;
64714;SDS011;51144;53.002;6.506;2022-11-21T03:59:17;33.47;;;20.20;;
64714;SDS011;51144;53.002;6.506;2022-11-21T04:01:42;30.85;;;20.50;;
64714;SDS011;51144;53.002;6.506;2022-11-21T04:04:08;27.20;;;18.98;;
64714;SDS011;51144;53.002;6.506;2022-11-21T04:06:33;30.98;;;19.55;;
64714;SDS011;51144;53.002;6.506;2022-11-21T04:08:59;33.83;;;19.70;;
64714;SDS011;51144;53.002;6.506;2022-11-21T04:11:24;28.30;;;20.02;;
64714;SDS011;51144;53.002;6.506;2022-11-21T04:13:50;33.30;;;20.88;;
64714;SDS011;51144;53.002;6.506;2022-11-21T04:16:16;30.65;;;20.38;;
64714;SDS011;51144;53.002;6.506;2022-11-21T04:18:42;35.08;;;20.63;;
64714;SDS011;51144;53.002;6.506;2022-11-21T04:21:07;33.65;;;19.58;;
64714;SDS011;51144;53.002;6.506;2022-11-21T04:23:34;31.33;;;20.55;;
64714;SDS011;51144;53.002;6.506;2022-11-21T04:26:00;36.30;;;21.23;;
64714;SDS011;51144;53.002;6.506;2022-11-21T04:28:26;33.17;;;21.27;;
64714;SDS011;51144;53.002;6.506;2022-11-21T04:30:52;40.13;;;21.88;;
64714;SDS011;51144;53.002;6.506;2022-11-21T04:33:18;35.63;;;21.25;;
64714;SDS011;51144;53.002;6.506;2022-11-21T04:35:44;36.97;;;22.75;;
64714;SDS011;51144;53.002;6.506;2022-11-21T04:38:11;36.97;;;21.15;;
64714;SDS011;51144;53.002;6.506;2022-11-21T04:40:37;35.42;;;20.77;;
64714;SDS011;51144;53.002;6.506;2022-11-21T04:43:03;34.58;;;21.88;;
64714;SDS011;51144;53.002;6.506;2022-11-21T04:45:30;34.90;;;22.27;;
64714;SDS011;51144;53.002;6.506;2022-11-21T04:47:56;32.28;;;20.42;;
64714;SDS011;51144;53.002;6.506;2022-11-21T04:50:21;36.35;;;22.77;;
64714;SDS011;51144;53.002;6.506;2022-11-21T04:52:48;39.28;;;21.23;;
64714;SDS011;51144;53.002;6.506;2022-11-21T04:55:18;39.95;;;23.02;;
64714;SDS011;51144;53.002;6.506;2022-11-21T04:57:44;41.83;;;23.65;;
64714;SDS011;51144;53.002;6.506;2022-11-21T05:00:10;36.17;;;22.20;;
64714;SDS011;51144;53.002;6.506;2022-11-21T05:02:37;37.10;;;22.42;;
64714;SDS011;51144;53.002;6.506;2022-11-21T05:05:03;35.97;;;22.42;;
64714;SDS011;51144;53.002;6.506;2022-11-21T05:07:29;39.65;;;23.17;;
64714;SDS011;51144;53.002;6.506;2022-11-21T05:09:55;38.33;;;23.50;;
64714;SDS011;51144;53.002;6.506;2022-11-21T05:12:20;37.58;;;23.10;;
64714;SDS011;51144;53.002;6.506;2022-11-21T05:15:04;35.20;;;22.27;;
64714;SDS011;51144;53.002;6.506;2022-11-21T05:17:30;39.20;;;23.33;;
64714;SDS011;51144;53.002;6.506;2022-11-21T05:19:55;36.10;;;23.20;;
64714;SDS011;51144;53.002;6.506;2022-11-21T05:22:21;39.08;;;24.73;;
64714;SDS011;51144;53.002;6.506;2022-11-21T05:24:47;43.55;;;24.98;;
64714;SDS011;51144;53.002;6.506;2022-11-21T05:27:12;38.42;;;23.02;;
64714;SDS011;51144;53.002;6.506;2022-11-21T05:29:38;39.00;;;25.17;;
64714;SDS011;51144;53.002;6.506;2022-11-21T05:32:03;44.20;;;25.30;;
64714;SDS011;51144;53.002;6.506;2022-11-21T05:34:29;42.13;;;26.80;;
64714;SDS011;51144;53.002;6.506;2022-11-21T05:36:55;42.22;;;24.17;;
64714;SDS011;51144;53.002;6.506;2022-11-21T05:39:21;47.05;;;26.48;;
64714;SDS011;51144;53.002;6.506;2022-11-21T05:41:47;42.60;;;26.15;;
64714;SDS011;51144;53.002;6.506;2022-11-21T05:44:12;43.45;;;24.05;;
64714;SDS011;51144;53.002;6.506;2022-11-21T05:46:38;52.40;;;28.17;;
64714;SDS011;51144;53.002;6.506;2022-11-21T05:49:03;45.47;;;26.77;;
64714;SDS011;51144;53.002;6.506;2022-11-21T05:51:29;42.72;;;25.95;;
64714;SDS011;51144;53.002;6.506;2022-11-21T05:53:55;46.10;;;27.02;;
64714;SDS011;51144;53.002;6.506;2022-11-21T05:56:20;43.15;;;26.73;;
64714;SDS011;51144;53.002;6.506;2022-11-21T05:58:46;48.13;;;26.67;;
64714;SDS011;51144;53.002;6.506;2022-11-21T06:01:12;42.38;;;26.25;;
64714;SDS011;51144;53.002;6.506;2022-11-21T06:04:01;47.58;;;25.80;;
64714;SDS011;51144;53.002;6.506;2022-11-21T06:06:26;49.55;;;27.23;;
64714;SDS011;51144;53.002;6.506;2022-11-21T06:08:52;48.65;;;27.73;;
64714;SDS011;51144;53.002;6.506;2022-11-21T06:11:17;45.00;;;27.50;;
64714;SDS011;51144;53.002;6.506;2022-11-21T06:13:43;54.30;;;28.38;;
64714;SDS011;51144;53.002;6.506;2022-11-21T06:16:10;44.33;;;28.13;;
64714;SDS011;51144;53.002;6.506;2022-11-21T06:18:38;46.08;;;27.42;;
64714;SDS011;51144;53.002;6.506;2022-11-21T06:21:07;48.67;;;27.90;;
64714;SDS011;51144;53.002;6.506;2022-11-21T06:23:36;47.30;;;28.25;;
64714;SDS011;51144;53.002;6.506;2022-11-21T06:26:03;54.78;;;28.08;;
64714;SDS011;51144;53.002;6.506;2022-11-21T06:28:31;53.70;;;27.85;;
64714;SDS011;51144;53.002;6.506;2022-11-21T06:31:05;45.75;;;27.70;;
64714;SDS011;51144;53.002;6.506;2022-11-21T06:33:33;44.20;;;25.55;;
64714;SDS011;51144;53.002;6.506;2022-11-21T06:36:05;49.72;;;28.20;;
64714;SDS011;51144;53.002;6.506;2022-11-21T06:38:32;47.67;;;27.55;;
64714;SDS011;51144;53.002;6.506;2022-11-21T06:41:02;42.40;;;24.92;;
64714;SDS011;51144;53.002;6.506;2022-11-21T06:43:29;50.35;;;28.42;;
64714;SDS011;51144;53.002;6.506;2022-11-21T06:45:55;46.30;;;26.90;;
64714;SDS011;51144;53.002;6.506;2022-11-21T06:48:21;47.10;;;26.55;;
64714;SDS011;51144;53.002;6.506;2022-11-21T06:50:46;45.78;;;27.23;;
64714;SDS011;51144;53.002;6.506;2022-11-21T06:53:15;46.95;;;27.13;;
64714;SDS011;51144;53.002;6.506;2022-11-21T06:55:41;45.85;;;27.17;;
64714;SDS011;51144;53.002;6.506;2022-11-21T06:58:07;42.67;;;26.30;;
64714;SDS011;51144;53.002;6.506;2022-11-21T07:00:36;47.40;;;26.35;;
64714;SDS011;51144;53.002;6.506;2022-11-21T07:03:11;53.42;;;27.20;;
64714;SDS011;51144;53.002;6.506;2022-11-21T07:05:37;50.13;;;26.60;;
64714;SDS011;51144;53.002;6.506;2022-11-21T07:08:02;45.38;;;27.23;;
64714;SDS011;51144;53.002;6.506;2022-11-21T07:10:29;45.47;;;26.88;;
64714;SDS011;51144;53.002;6.506;2022-11-21T07:13:01;41.97;;;26.13;;
64714;SDS011;51144;53.002;6.506;2022-11-21T07:15:45;45.55;;;27.25;;
64714;SDS011;51144;53.002;6.506;2022-11-21T07:18:18;46.35;;;27.05;;
64714;SDS011;51144;53.002;6.506;2022-11-21T07:21:11;47.15;;;26.58;;
64714;SDS011;51144;53.002;6.506;2022-11-21T07:26:27;42.88;;;25.80;;
64714;SDS011;51144;53.002;6.506;2022-11-21T07:28:53;44.53;;;26.95;;
64714;SDS011;51144;53.002;6.506;2022-11-21T07:31:19;43.95;;;25.60;;
64714;SDS011;51144;53.002;6.506;2022-11-21T07:33:46;47.83;;;27.00;;
64714;SDS011;51144;53.002;6.506;2022-11-21T07:36:12;42.28;;;25.65;;
64714;SDS011;51144;53.002;6.506;2022-11-21T07:38:38;47.67;;;27.73;;
64714;SDS011;51144;53.002;6.506;2022-11-21T07:41:05;52.55;;;29.98;;
64714;SDS011;51144;53.002;6.506;2022-11-21T07:43:33;51.30;;;28.38;;
64714;SDS011;51144;53.002;6.506;2022-11-21T07:45:58;51.75;;;27.65;;
64714;SDS011;51144;53.002;6.506;2022-11-21T07:48:24;50.45;;;29.17;;
64714;SDS011;51144;53.002;6.506;2022-11-21T07:50:50;45.75;;;27.10;;
64714;SDS011;51144;53.002;6.506;2022-11-21T07:53:18;48.70;;;28.95;;
64714;SDS011;51144;53.002;6.506;2022-11-21T07:55:43;49.22;;;28.98;;
64714;SDS011;51144;53.002;6.506;2022-11-21T07:58:10;48.72;;;28.05;;
64714;SDS011;51144;53.002;6.506;2022-11-21T08:00:38;50.00;;;28.77;;
64714;SDS011;51144;53.002;6.506;2022-11-21T08:03:12;46.95;;;28.63;;
64714;SDS011;51144;53.002;6.506;2022-11-21T08:05:39;53.15;;;28.80;;
64714;SDS011;51144;53.002;6.506;2022-11-21T08:08:13;48.63;;;28.40;;
64714;SDS011;51144;53.002;6.506;2022-11-21T08:10:43;49.22;;;29.33;;
64714;SDS011;51144;53.002;6.506;2022-11-21T08:13:10;48.63;;;29.17;;
64714;SDS011;51144;53.002;6.506;2022-11-21T08:15:37;48.60;;;28.75;;
64714;SDS011;51144;53.002;6.506;2022-11-21T08:18:15;42.10;;;26.90;;
64714;SDS011;51144;53.002;6.506;2022-11-21T08:20:45;49.15;;;28.55;;
64714;SDS011;51144;53.002;6.506;2022-11-21T08:23:10;48.40;;;27.60;;
64714;SDS011;51144;53.002;6.506;2022-11-21T08:25:37;45.78;;;27.27;;
64714;SDS011;51144;53.002;6.506;2022-11-21T08:28:04;46.05;;;28.33;;
64714;SDS011;51144;53.002;6.506;2022-11-21T08:30:33;42.60;;;26.85;;
64714;SDS011;51144;53.002;6.506;2022-11-21T08:32:59;47.72;;;29.27;;
64714;SDS011;51144;53.002;6.506;2022-11-21T08:35:29;46.22;;;27.58;;
64714;SDS011;51144;53.002;6.506;2022-11-21T08:37:55;43.15;;;27.35;;
64714;SDS011;51144;53.002;6.506;2022-11-21T08:40:22;46.05;;;27.08;;
64714;SDS011;51144;53.002;6.506;2022-11-21T08:43:02;43.90;;;26.13;;
64714;SDS011;51144;53.002;6.506;2022-11-21T08:45:29;38.42;;;24.15;;
64714;SDS011;51144;53.002;6.506;2022-11-21T08:47:56;41.88;;;25.42;;
64714;SDS011;51144;53.002;6.506;2022-11-21T08:50:22;37.88;;;23.70;;
64714;SDS011;51144;53.002;6.506;2022-11-21T08:52:48;37.75;;;24.75;;
64714;SDS011;51144;53.002;6.506;2022-11-21T08:55:26;39.60;;;24.27;;
64714;SDS011;51144;53.002;6.506;2022-11-21T08:57:52;35.45;;;22.90;;
64714;SDS011;51144;53.002;6.506;2022-11-21T09:00:18;37.80;;;23.38;;
64714;SDS011;51144;53.002;6.506;2022-11-21T09:02:43;39.33;;;24.88;;
64714;SDS011;51144;53.002;6.506;2022-11-21T09:05:09;38.50;;;23.52;;
64714;SDS011;51144;53.002;6.506;2022-11-21T09:07:41;37.47;;;23.25;;
64714;SDS011;51144;53.002;6.506;2022-11-21T09:10:06;42.47;;;24.52;;
64714;SDS011;51144;53.002;6.506;2022-11-21T09:12:36;40.28;;;24.50;;
64714;SDS011;51144;53.002;6.506;2022-11-21T09:15:01;39.47;;;25.05;;
64714;SDS011;51144;53.002;6.506;2022-11-21T09:17:46;37.60;;;24.10;;
64714;SDS011;51144;53.002;6.506;2022-11-21T09:20:31;43.60;;;24.63;;
64714;SDS011;51144;53.002;6.506;2022-11-21T09:23:08;40.55;;;25.30;;
64714;SDS011;51144;53.002;6.506;2022-11-21T09:25:35;40.35;;;24.45;;
64714;SDS011;51144;53.002;6.506;2022-11-21T09:28:01;38.92;;;23.90;;
64714;SDS011;51144;53.002;6.506;2022-11-21T09:30:28;40.25;;;24.95;;
64714;SDS011;51144;53.002;6.506;2022-11-21T09:32:57;42.78;;;26.85;;
64714;SDS011;51144;53.002;6.506;2022-11-21T09:35:27;39.77;;;25.30;;
64714;SDS011;51144;53.002;6.506;2022-11-21T09:37:53;37.85;;;25.50;;
64714;SDS011;51144;53.002;6.506;2022-11-21T09:40:19;43.38;;;25.48;;
64714;SDS011;51144;53.002;6.506;2022-11-21T09:42:51;39.92;;;24.83;;
64714;SDS011;51144;53.002;6.506;2022-11-21T09:45:33;38.38;;;24.95;;
64714;SDS011;51144;53.002;6.506;2022-11-21T09:48:10;38.03;;;25.52;;
64714;SDS011;51144;53.002;6.506;2022-11-21T09:50:38;39.05;;;24.17;;
64714;SDS011;51144;53.002;6.506;2022-11-21T09:56:16;39.25;;;24.38;;
64714;SDS011;51144;53.002;6.506;2022-11-21T10:01:31;38.77;;;25.30;;
64714;SDS011;51144;53.002;6.506;2022-11-21T10:03:56;38.90;;;24.80;;
64714;SDS011;51144;53.002;6.506;2022-11-21T10:06:26;40.40;;;24.52;;
64714;SDS011;51144;53.002;6.506;2022-11-21T10:08:56;37.58;;;25.08;;
64714;SDS011;51144;53.002;6.506;2022-11-21T10:14:36;34.60;;;23.00;;
64714;SDS011;51144;53.002;6.506;2022-11-21T10:22:35;43.35;;;25.98;;
64714;SDS011;51144;53.002;6.506;2022-11-21T10:25:19;39.17;;;25.73;;
64714;SDS011;51144;53.002;6.506;2022-11-21T10:27:50;40.17;;;25.55;;
64714;SDS011;51144;53.002;6.506;2022-11-21T10:30:36;37.53;;;24.27;;
64714;SDS011;51144;53.002;6.506;2022-11-21T10:33:10;41.78;;;25.50;;
64714;SDS011;51144;53.002;6.506;2022-11-21T10:35:40;37.42;;;23.77;;
64714;SDS011;51144;53.002;6.506;2022-11-21T10:38:21;34.60;;;22.17;;
64714;SDS011;51144;53.002;6.506;2022-11-21T10:40:50;39.67;;;23.75;;
64714;SDS011;51144;53.002;6.506;2022-11-21T10:46:26;33.08;;;21.25;;
64714;SDS011;51144;53.002;6.506;2022-11-21T10:48:54;34.25;;;21.98;;
64714;SDS011;51144;53.002;6.506;2022-11-21T10:51:44;33.30;;;21.20;;
64714;SDS011;51144;53.002;6.506;2022-11-21T10:54:31;31.88;;;21.05;;
64714;SDS011;51144;53.002;6.506;2022-11-21T10:57:01;29.75;;;19.35;;
64714;SDS011;51144;53.002;6.506;2022-11-21T10:59:37;27.50;;;19.42;;
64714;SDS011;51144;53.002;6.506;2022-11-21T11:04:38;27.10;;;18.27;;
64714;SDS011;51144;53.002;6.506;2022-11-21T11:09:50;23.17;;;16.15;;
64714;SDS011;51144;53.002;6.506;2022-11-21T11:14:57;21.08;;;14.85;;
64714;SDS011;51144;53.002;6.506;2022-11-21T11:17:26;22.38;;;15.02;;
64714;SDS011;51144;53.002;6.506;2022-11-21T11:20:01;19.75;;;15.13;;
64714;SDS011;51144;53.002;6.506;2022-11-21T11:22:31;21.80;;;15.13;;
64714;SDS011;51144;53.002;6.506;2022-11-21T11:24:57;23.95;;;16.13;;
64714;SDS011;51144;53.002;6.506;2022-11-21T11:27:29;21.83;;;15.27;;
64714;SDS011;51144;53.002;6.506;2022-11-21T11:29:54;18.58;;;13.40;;
64714;SDS011;51144;53.002;6.506;2022-11-21T11:32:20;20.15;;;13.80;;
64714;SDS011;51144;53.002;6.506;2022-11-21T11:37:37;20.05;;;15.90;;
64714;SDS011;51144;53.002;6.506;2022-11-21T11:40:27;18.15;;;13.77;;
64714;SDS011;51144;53.002;6.506;2022-11-21T11:46:08;19.23;;;13.93;;
64714;SDS011;51144;53.002;6.506;2022-11-21T11:49:17;17.45;;;14.10;;
64714;SDS011;51144;53.002;6.506;2022-11-21T11:51:53;18.05;;;13.45;;
64714;SDS011;51144;53.002;6.506;2022-11-21T11:54:25;17.38;;;13.07;;
64714;SDS011;51144;53.002;6.506;2022-11-21T11:56:59;17.23;;;13.05;;
64714;SDS011;51144;53.002;6.506;2022-11-21T11:59:26;20.13;;;12.88;;
64714;SDS011;51144;53.002;6.506;2022-11-21T12:04:27;18.13;;;13.68;;
64714;SDS011;51144;53.002;6.506;2022-11-21T12:07:03;17.38;;;13.63;;
64714;SDS011;51144;53.002;6.506;2022-11-21T12:09:37;19.13;;;14.13;;
64714;SDS011;51144;53.002;6.506;2022-11-21T12:12:31;18.67;;;14.57;;
64714;SDS011;51144;53.002;6.506;2022-11-21T12:18:10;18.92;;;14.63;;
64714;SDS011;51144;53.002;6.506;2022-11-21T12:23:49;19.42;;;14.63;;
64714;SDS011;51144;53.002;6.506;2022-11-21T12:29:31;18.20;;;14.38;;
64714;SDS011;51144;53.002;6.506;2022-11-21T12:35:08;22.02;;;16.17;;
64714;SDS011;51144;53.002;6.506;2022-11-21T12:49:32;24.00;;;17.40;;
64714;SDS011;51144;53.002;6.506;2022-11-21T12:52:32;23.67;;;17.35;;
64714;SDS011;51144;53.002;6.506;2022-11-21T13:03:34;25.48;;;17.80;;
64714;SDS011;51144;53.002;6.506;2022-11-21T13:06:25;22.92;;;16.52;;
64714;SDS011;51144;53.002;6.506;2022-11-21T13:08:57;28.00;;;17.10;;
64714;SDS011;51144;53.002;6.506;2022-11-21T13:11:35;22.65;;;16.58;;
64714;SDS011;51144;53.002;6.506;2022-11-21T13:30:46;27.30;;;18.13;;
64714;SDS011;51144;53.002;6.506;2022-11-21T13:36:09;26.58;;;18.90;;
64714;SDS011;51144;53.002;6.506;2022-11-21T13:41:42;23.77;;;17.67;;
64714;SDS011;51144;53.002;6.506;2022-11-21T13:52:27;23.95;;;17.88;;
64714;SDS011;51144;53.002;6.506;2022-11-21T13:55:17;26.42;;;18.58;;
64714;SDS011;51144;53.002;6.506;2022-11-21T13:58:12;28.98;;;18.35;;
64714;SDS011;51144;53.002;6.506;2022-11-21T14:04:05;24.42;;;17.42;;
64714;SDS011;51144;53.002;6.506;2022-11-21T14:06:48;29.80;;;18.67;;
64714;SDS011;51144;53.002;6.506;2022-11-21T14:09:16;24.23;;;18.25;;
64714;SDS011;51144;53.002;6.506;2022-11-21T14:12:17;32.15;;;20.80;;
64714;SDS011;51144;53.002;6.506;2022-11-21T14:17:43;29.73;;;21.25;;
64714;SDS011;51144;53.002;6.506;2022-11-21T14:20:16;30.92;;;20.80;;
64714;SDS011;51144;53.002;6.506;2022-11-21T14:23:05;29.45;;;20.25;;
64714;SDS011;51144;53.002;6.506;2022-11-21T14:28:30;29.17;;;19.83;;
64714;SDS011;51144;53.002;6.506;2022-11-21T14:31:01;28.55;;;19.60;;
64714;SDS011;51144;53.002;6.506;2022-11-21T14:33:35;30.38;;;20.20;;
64714;SDS011;51144;53.002;6.506;2022-11-21T14:36:08;29.65;;;21.33;;
64714;SDS011;51144;53.002;6.506;2022-11-21T14:38:42;30.73;;;20.27;;
64714;SDS011;51144;53.002;6.506;2022-11-21T14:46:22;33.10;;;21.50;;
64714;SDS011;51144;53.002;6.506;2022-11-21T14:48:49;29.75;;;21.88;;
64714;SDS011;51144;53.002;6.506;2022-11-21T14:51:19;33.45;;;21.50;;
64714;SDS011;51144;53.002;6.506;2022-11-21T14:53:47;32.92;;;22.05;;
64714;SDS011;51144;53.002;6.506;2022-11-21T14:56:31;37.38;;;22.23;;
64714;SDS011;51144;53.002;6.506;2022-11-21T14:59:00;34.17;;;21.42;;
64714;SDS011;51144;53.002;6.506;2022-11-21T15:01:28;38.60;;;23.02;;
64714;SDS011;51144;53.002;6.506;2022-11-21T15:04:05;35.75;;;23.00;;
64714;SDS011;51144;53.002;6.506;2022-11-21T15:06:41;34.13;;;21.83;;
64714;SDS011;51144;53.002;6.506;2022-11-21T15:09:12;40.05;;;24.08;;
64714;SDS011;51144;53.002;6.506;2022-11-21T15:14:33;35.60;;;23.08;;
64714;SDS011;51144;53.002;6.506;2022-11-21T15:17:10;39.60;;;23.45;;
64714;SDS011;51144;53.002;6.506;2022-11-21T15:19:39;43.85;;;24.92;;
64714;SDS011;51144;53.002;6.506;2022-11-21T15:22:14;40.35;;;23.73;;
64714;SDS011;51144;53.002;6.506;2022-11-21T15:25:07;48.38;;;24.88;;
64714;SDS011;51144;53.002;6.506;2022-11-21T15:27:33;45.03;;;24.48;;
64714;SDS011;51144;53.002;6.506;2022-11-21T15:30:04;40.80;;;23.25;;
64714;SDS011;51144;53.002;6.506;2022-11-21T15:32:31;46.85;;;24.17;;
64714;SDS011;51144;53.002;6.506;2022-11-21T15:34:57;47.10;;;23.77;;
64714;SDS011;51144;53.002;6.506;2022-11-21T15:37:22;50.53;;;26.50;;
64714;SDS011;51144;53.002;6.506;2022-11-21T15:39:49;50.47;;;25.10;;
64714;SDS011;51144;53.002;6.506;2022-11-21T15:44:56;64.75;;;28.35;;
64714;SDS011;51144;53.002;6.506;2022-11-21T15:47:22;65.80;;;28.55;;
64714;SDS011;51144;53.002;6.506;2022-11-21T15:49:48;60.38;;;27.10;;
64714;SDS011;51144;53.002;6.506;2022-11-21T15:52:13;64.05;;;28.02;;
64714;SDS011;51144;53.002;6.506;2022-11-21T15:54:39;66.78;;;29.63;;
64714;SDS011;51144;53.002;6.506;2022-11-21T15:57:04;73.82;;;28.63;;
64714;SDS011;51144;53.002;6.506;2022-11-21T15:59:30;75.95;;;30.52;;
64714;SDS011;51144;53.002;6.506;2022-11-21T16:01:55;73.20;;;30.35;;
64714;SDS011;51144;53.002;6.506;2022-11-21T16:04:21;77.88;;;30.10;;
64714;SDS011;51144;53.002;6.506;2022-11-21T16:06:46;80.57;;;31.50;;
64714;SDS011;51144;53.002;6.506;2022-11-21T16:09:12;78.28;;;31.42;;
64714;SDS011;51144;53.002;6.506;2022-11-21T16:11:37;78.07;;;31.35;;
64714;SDS011;51144;53.002;6.506;2022-11-21T16:14:07;84.03;;;30.23;;
64714;SDS011;51144;53.002;6.506;2022-11-21T16:16:36;87.05;;;32.38;;
64714;SDS011;51144;53.002;6.506;2022-11-21T16:19:04;100.32;;;33.60;;
64714;SDS011;51144;53.002;6.506;2022-11-21T16:21:36;107.45;;;33.45;;
64714;SDS011;51144;53.002;6.506;2022-11-21T16:24:02;105.20;;;33.92;;
64714;SDS011;51144;53.002;6.506;2022-11-21T16:26:28;113.40;;;34.97;;
64714;SDS011;51144;53.002;6.506;2022-11-21T16:28:54;101.60;;;33.38;;
64714;SDS011;51144;53.002;6.506;2022-11-21T16:31:21;103.03;;;34.10;;
64714;SDS011;51144;53.002;6.506;2022-11-21T16:33:48;104.57;;;34.90;;